Time;durP1;ratioP1;P1;durP2;ratioP2;P2;SDS_P1;SDS_P2;PMS_P1;PMS_P2;Temp;Humidity;BMP_temperature;BMP_pressure;BME280_temperature;BME280_humidity;BME280_pressure;Samples;Min_cycle;Max_cycle;Signal;HPM_P1;HPM_P2
2021/09/10 00:00:32;;;;;;;;;;;;;;;;;;2090409;28;19924;-45
2021/09/10 00:01:33;;;;;;;;;;;;;;;;;;2089961;28;19920;-45
2021/09/10 00:02:34;;;;;;;;;;;;;;;;;;2085828;28;19929;-45
2021/09/10 00:03:35;;;;;;;;;;;;;;;;;;2082166;28;20354;-45
2021/09/10 00:04:36;;;;;;;;;;;;;;;;;;2083625;28;19935;-45
2021/09/10 00:05:37;;;;;;;;;;;;;;;;;;2088516;28;19920;-45
2021/09/10 00:06:39;;;;;;;;;;;;;;;;;;2090298;28;19920;-45
2021/09/10 00:07:40;;;;;;;;;;;;;;;;;;2089587;28;20377;-45
2021/09/10 00:08:41;;;;;;;;;;;;;;;;;;2085612;28;19936;-45
2021/09/10 00:09:42;;;;;;;;;;;;;;;;;;2082120;28;19921;-45
2021/09/10 00:10:42;;;;;;;;;;;;;;;;;;2084607;28;19921;-47
2021/09/10 00:11:43;;;;;;;;;;;;;;;;;;2088429;28;19929;-45
2021/09/10 00:12:44;;;;;;;;;;;;;;;;;;2090272;28;20293;-45
2021/09/10 00:13:45;;;;;;;;;;;;;;;;;;2089362;28;19952;-48
2021/09/10 00:14:46;;;;;;;;;;;;;;;;;;2084419;28;19928;-46
2021/09/10 00:15:47;;;;;;;;;;;;;;;;;;2081961;28;19924;-45
2021/09/10 00:16:47;;;;;;;;;;;;;;;;;;2085663;28;20428;-46
2021/09/10 00:17:48;;;;;;;;;;;;;;;;;;2083895;28;19921;-46
2021/09/10 00:18:49;;;;;;;;;;;;;;;;;;2082069;28;19925;-45
2021/09/10 00:19:50;;;;;;;;;;;;;;;;;;2085706;28;19982;-45
2021/09/10 00:20:51;;;;;;;;;;;;;;;;;;2089804;28;20261;-45
2021/09/10 00:21:51;;;;;;;;;;;;;;;;;;2090274;28;20392;-45
2021/09/10 00:22:52;;;;;;;;;;;;;;;;;;2089082;28;19928;-46
2021/09/10 00:23:53;;;;;;;;;;;;;;;;;;2082996;28;20004;-47
2021/09/10 00:24:54;;;;;;;;;;;;;;;;;;2081963;28;19921;-45
2021/09/10 00:25:55;;;;;;;;;;;;;;;;;;2086207;28;19920;-46
2021/09/10 00:26:55;;;;;;;;;;;;;;;;;;2090115;28;19921;-46
2021/09/10 00:27:56;;;;;;;;;;;;;;;;;;2090218;28;19924;-45
2021/09/10 00:28:57;;;;;;;;;;;;;;;;;;2087842;28;19936;-45
2021/09/10 00:29:58;;;;;;;;;;;;;;;;;;2090113;28;19921;-45
2021/09/10 00:30:59;;;;;;;;;;;;;;;;;;2090068;28;19928;-45
2021/09/10 00:32:00;;;;;;;;;;;;;;;;;;2087974;28;19921;-45
2021/09/10 00:33:00;;;;;;;;;;;;;;;;;;2090314;28;19927;-46
2021/09/10 00:34:01;;;;;;;;;;;;;;;;;;2090121;28;20367;-45
2021/09/10 00:35:03;;;;;;;;;;;;;;;;;;2086771;28;19921;-45
2021/09/10 00:36:04;;;;;;;;;;;;;;;;;;2090069;28;20008;-45
2021/09/10 00:37:05;;;;;;;;;;;;;;;;;;2089699;28;20281;-45
2021/09/10 00:38:06;;;;;;;;;;;;;;;;;;2085090;28;19921;-45
2021/09/10 00:39:07;;;;;;;;;;;;;;;;;;2081973;28;20048;-45
2021/09/10 00:40:08;;;;;;;;;;;;;;;;;;2084642;28;19928;-47
2021/09/10 00:41:09;;;;;;;;;;;;;;;;;;2088798;28;19989;-45
2021/09/10 00:42:10;;;;;;;;;;;;;;;;;;2090064;28;20328;-45
2021/09/10 00:43:10;;;;;;;;;;;;;;;;;;2089324;28;19927;-46
2021/09/10 00:44:11;;;;;;;;;;;;;;;;;;2084146;28;19931;-45
2021/09/10 00:45:12;;;;;;;;;;;;;;;;;;2081806;28;19921;-45
2021/09/10 00:46:13;;;;;;;;;;;;;;;;;;2085817;28;19975;-45
2021/09/10 00:47:14;;;;;;;;;;;;;;;;;;2088800;28;19920;-45
2021/09/10 00:48:15;;;;;;;;;;;;;;;;;;2090084;28;19924;-45
2021/09/10 00:49:15;;;;;;;;;;;;;;;;;;2088220;28;20386;-45
2021/09/10 00:50:16;;;;;;;;;;;;;;;;;;2089546;28;19928;-45
2021/09/10 00:51:17;;;;;;;;;;;;;;;;;;2081125;28;19925;-44
2021/09/10 00:52:18;;;;;;;;;;;;;;;;;;2086811;28;19921;-45
2021/09/10 00:53:19;;;;;;;;;;;;;;;;;;2082392;28;19944;-45
2021/09/10 00:54:20;;;;;;;;;;;;;;;;;;2081811;28;20013;-45
2021/09/10 00:55:20;;;;;;;;;;;;;;;;;;2086233;28;19920;-45
2021/09/10 00:56:21;;;;;;;;;;;;;;;;;;2089927;28;19921;-46
2021/09/10 00:57:22;;;;;;;;;;;;;;;;;;2090076;28;20293;-46
2021/09/10 00:58:23;;;;;;;;;;;;;;;;;;2088371;28;20369;-46
2021/09/10 00:59:23;;;;;;;;;;;;;;;;;;2081884;28;19927;-47
2021/09/10 01:00:24;;;;;;;;;;;;;;;;;;2081694;28;19925;-48
2021/09/10 01:01:25;;;;;;;;;;;;;;;;;;2087321;28;19928;-46
2021/09/10 01:02:26;;;;;;;;;;;;;;;;;;2090010;28;19982;-45
2021/09/10 01:03:27;;;;;;;;;;;;;;;;;;2089566;28;20025;-47
2021/09/10 01:04:29;;;;;;;;;;;;;;;;;;2088058;28;20023;-45
2021/09/10 01:05:30;;;;;;;;;;;;;;;;;;2089923;28;19920;-45
2021/09/10 01:06:30;;;;;;;;;;;;;;;;;;2089720;28;19921;-47
2021/09/10 01:07:31;;;;;;;;;;;;;;;;;;2088029;28;20003;-46
2021/09/10 01:08:32;;;;;;;;;;;;;;;;;;2090121;28;20389;-46
2021/09/10 01:09:33;;;;;;;;;;;;;;;;;;2089439;28;19921;-46
2021/09/10 01:10:34;;;;;;;;;;;;;;;;;;2086304;28;20275;-45
2021/09/10 01:11:34;;;;;;;;;;;;;;;;;;2081761;28;19921;-48
2021/09/10 01:12:35;;;;;;;;;;;;;;;;;;2083358;28;19921;-45
2021/09/10 01:13:36;;;;;;;;;;;;;;;;;;2088055;28;19921;-46
2021/09/10 01:14:37;;;;;;;;;;;;;;;;;;2089883;28;19978;-45
2021/09/10 01:15:38;;;;;;;;;;;;;;;;;;2088967;28;19935;-45
2021/09/10 01:16:39;;;;;;;;;;;;;;;;;;2088304;28;19928;-45
2021/09/10 01:17:39;;;;;;;;;;;;;;;;;;2090071;28;19944;-45
2021/09/10 01:18:40;;;;;;;;;;;;;;;;;;2089042;28;19940;-46
2021/09/10 01:19:41;;;;;;;;;;;;;;;;;;2084737;28;19974;-45
2021/09/10 01:20:42;;;;;;;;;;;;;;;;;;2081556;28;19921;-44
2021/09/10 01:21:42;;;;;;;;;;;;;;;;;;2084359;28;19921;-45
2021/09/10 01:22:43;;;;;;;;;;;;;;;;;;2088714;28;19920;-45
2021/09/10 01:23:44;;;;;;;;;;;;;;;;;;2089131;28;20275;-45
2021/09/10 01:24:45;;;;;;;;;;;;;;;;;;2088936;28;20294;-45
2021/09/10 01:25:46;;;;;;;;;;;;;;;;;;2083642;28;19921;-45
2021/09/10 01:26:46;;;;;;;;;;;;;;;;;;2081792;28;19932;-45
2021/09/10 01:27:47;;;;;;;;;;;;;;;;;;2085303;28;19924;-44
2021/09/10 01:28:48;;;;;;;;;;;;;;;;;;2089103;28;20405;-45
2021/09/10 01:29:49;;;;;;;;;;;;;;;;;;2089829;28;19920;-45
2021/09/10 01:30:50;;;;;;;;;;;;;;;;;;2088433;28;19921;-45
2021/09/10 01:31:50;;;;;;;;;;;;;;;;;;2088793;28;19920;-44
2021/09/10 01:32:51;;;;;;;;;;;;;;;;;;2089948;28;19920;-45
2021/09/10 01:33:52;;;;;;;;;;;;;;;;;;2087758;28;19951;-45
2021/09/10 01:34:53;;;;;;;;;;;;;;;;;;2089595;28;19921;-45
2021/09/10 01:35:54;;;;;;;;;;;;;;;;;;2089889;28;19921;-44
2021/09/10 01:36:55;;;;;;;;;;;;;;;;;;2087397;28;20298;-45
2021/09/10 01:37:56;;;;;;;;;;;;;;;;;;2089681;28;19920;-45
2021/09/10 01:38:56;;;;;;;;;;;;;;;;;;2089730;28;19927;-46
2021/09/10 01:39:57;;;;;;;;;;;;;;;;;;2086768;28;19932;-45
2021/09/10 01:40:58;;;;;;;;;;;;;;;;;;2081563;28;19921;-45
2021/09/10 01:41:59;;;;;;;;;;;;;;;;;;2081522;28;20370;-45
2021/09/10 01:42:59;;;;;;;;;;;;;;;;;;2087447;28;19927;-45
2021/09/10 01:44:00;;;;;;;;;;;;;;;;;;2089891;28;19939;-45
2021/09/10 01:45:01;;;;;;;;;;;;;;;;;;2089368;28;19947;-45
2021/09/10 01:46:02;;;;;;;;;;;;;;;;;;2087614;28;19920;-45
2021/09/10 01:47:03;;;;;;;;;;;;;;;;;;2089727;28;20283;-45
2021/09/10 01:48:04;;;;;;;;;;;;;;;;;;2089370;28;19927;-45
2021/09/10 01:49:04;;;;;;;;;;;;;;;;;;2086551;28;19920;-46
2021/09/10 01:50:05;;;;;;;;;;;;;;;;;;2081416;28;19972;-45
2021/09/10 01:51:06;;;;;;;;;;;;;;;;;;2081133;28;19921;-45
2021/09/10 01:52:07;;;;;;;;;;;;;;;;;;2085847;28;19935;-45
2021/09/10 01:53:08;;;;;;;;;;;;;;;;;;2081640;28;19925;-45
2021/09/10 01:54:09;;;;;;;;;;;;;;;;;;2083401;28;20289;-45
2021/09/10 01:55:10;;;;;;;;;;;;;;;;;;2087862;28;19975;-45
2021/09/10 01:56:11;;;;;;;;;;;;;;;;;;2089627;28;20413;-45
2021/09/10 01:57:12;;;;;;;;;;;;;;;;;;2088897;28;19924;-45
2021/09/10 01:58:13;;;;;;;;;;;;;;;;;;2084848;28;19943;-45
2021/09/10 01:59:14;;;;;;;;;;;;;;;;;;2081399;28;20293;-45
2021/09/10 02:00:14;;;;;;;;;;;;;;;;;;2084153;28;19927;-47
2021/09/10 02:01:15;;;;;;;;;;;;;;;;;;2088304;28;19920;-45
2021/09/10 02:02:16;;;;;;;;;;;;;;;;;;2089678;28;19921;-45
2021/09/10 02:03:17;;;;;;;;;;;;;;;;;;2088664;28;19931;-45
2021/09/10 02:04:19;;;;;;;;;;;;;;;;;;2088195;28;19967;-46
2021/09/10 02:05:20;;;;;;;;;;;;;;;;;;2089569;28;20289;-45
2021/09/10 02:06:21;;;;;;;;;;;;;;;;;;2088160;28;19927;-45
2021/09/10 02:07:22;;;;;;;;;;;;;;;;;;2088926;28;19921;-45
2021/09/10 02:08:23;;;;;;;;;;;;;;;;;;2089620;28;20555;-45
2021/09/10 02:09:23;;;;;;;;;;;;;;;;;;2087581;28;19920;-45
2021/09/10 02:10:24;;;;;;;;;;;;;;;;;;2088442;28;19921;-45
2021/09/10 02:11:25;;;;;;;;;;;;;;;;;;2089584;28;20374;-45
2021/09/10 02:12:26;;;;;;;;;;;;;;;;;;2087389;28;19939;-45
2021/09/10 02:13:27;;;;;;;;;;;;;;;;;;2089583;28;19924;-46
2021/09/10 02:14:28;;;;;;;;;;;;;;;;;;2089757;28;20008;-45
2021/09/10 02:15:29;;;;;;;;;;;;;;;;;;2087353;28;19943;-45
2021/09/10 02:16:30;;;;;;;;;;;;;;;;;;2089627;28;19927;-45
2021/09/10 02:17:31;;;;;;;;;;;;;;;;;;2089602;28;19928;-45
2021/09/10 02:18:32;;;;;;;;;;;;;;;;;;2087273;28;20297;-45
2021/09/10 02:19:33;;;;;;;;;;;;;;;;;;2089519;28;20420;-45
2021/09/10 02:20:33;;;;;;;;;;;;;;;;;;2089491;28;19921;-46
2021/09/10 02:21:34;;;;;;;;;;;;;;;;;;2087052;28;19944;-45
2021/09/10 02:22:35;;;;;;;;;;;;;;;;;;2089739;28;20335;-45
2021/09/10 02:23:36;;;;;;;;;;;;;;;;;;2089255;28;20358;-48
2021/09/10 02:24:36;;;;;;;;;;;;;;;;;;2086685;28;19921;-45
2021/09/10 02:25:37;;;;;;;;;;;;;;;;;;2081238;28;19975;-45
2021/09/10 02:26:38;;;;;;;;;;;;;;;;;;2082028;28;19921;-45
2021/09/10 02:27:39;;;;;;;;;;;;;;;;;;2087466;28;19928;-45
2021/09/10 02:28:40;;;;;;;;;;;;;;;;;;2089457;28;20348;-45
2021/09/10 02:29:40;;;;;;;;;;;;;;;;;;2088995;28;20317;-44
2021/09/10 02:30:41;;;;;;;;;;;;;;;;;;2085683;28;19928;-47
2021/09/10 02:31:42;;;;;;;;;;;;;;;;;;2081266;28;19928;-47
2021/09/10 02:32:43;;;;;;;;;;;;;;;;;;2082947;28;20367;-45
2021/09/10 02:33:44;;;;;;;;;;;;;;;;;;2085033;28;19921;-45
2021/09/10 02:34:44;;;;;;;;;;;;;;;;;;2081771;28;19947;-47
2021/09/10 02:35:45;;;;;;;;;;;;;;;;;;2084777;28;19975;-47
2021/09/10 02:36:46;;;;;;;;;;;;;;;;;;2089393;28;19920;-47
2021/09/10 02:37:47;;;;;;;;;;;;;;;;;;2090869;28;20381;-47
2021/09/10 02:38:48;;;;;;;;;;;;;;;;;;2090183;28;19969;-45
2021/09/10 02:39:49;;;;;;;;;;;;;;;;;;2084524;28;19921;-45
2021/09/10 02:40:49;;;;;;;;;;;;;;;;;;2082632;28;19920;-47
2021/09/10 02:41:50;;;;;;;;;;;;;;;;;;2085896;28;19936;-47
2021/09/10 02:42:51;;;;;;;;;;;;;;;;;;2085239;28;19928;-47
2021/09/10 02:43:52;;;;;;;;;;;;;;;;;;2082644;28;20287;-47
2021/09/10 02:44:52;;;;;;;;;;;;;;;;;;2086438;28;19921;-46
2021/09/10 02:45:53;;;;;;;;;;;;;;;;;;2082600;28;19928;-47
2021/09/10 02:46:54;;;;;;;;;;;;;;;;;;2082653;28;20249;-47
2021/09/10 02:47:55;;;;;;;;;;;;;;;;;;2088137;28;19920;-47
2021/09/10 02:48:56;;;;;;;;;;;;;;;;;;2082716;28;19921;-47
2021/09/10 02:49:57;;;;;;;;;;;;;;;;;;2082697;28;20298;-47
2021/09/10 02:50:57;;;;;;;;;;;;;;;;;;2086737;28;19925;-46
2021/09/10 02:51:58;;;;;;;;;;;;;;;;;;2082628;28;19920;-46
2021/09/10 02:52:59;;;;;;;;;;;;;;;;;;2082660;28;20127;-46
2021/09/10 02:54:00;;;;;;;;;;;;;;;;;;2088090;28;19920;-47
2021/09/10 02:55:00;;;;;;;;;;;;;;;;;;2082582;28;19929;-47
2021/09/10 02:56:01;;;;;;;;;;;;;;;;;;2083238;28;19921;-47
2021/09/10 02:57:02;;;;;;;;;;;;;;;;;;2088348;28;19920;-46
2021/09/10 02:58:03;;;;;;;;;;;;;;;;;;2090760;28;20321;-47
2021/09/10 02:59:04;;;;;;;;;;;;;;;;;;2090339;28;19920;-47
2021/09/10 03:00:05;;;;;;;;;;;;;;;;;;2089001;28;19921;-47
2021/09/10 03:01:05;;;;;;;;;;;;;;;;;;2090963;28;19924;-47
2021/09/10 03:02:06;;;;;;;;;;;;;;;;;;2090298;28;19928;-46
2021/09/10 03:03:07;;;;;;;;;;;;;;;;;;2084316;28;20412;-47
2021/09/10 03:04:08;;;;;;;;;;;;;;;;;;2082498;28;19928;-47
2021/09/10 03:05:09;;;;;;;;;;;;;;;;;;2086537;28;19930;-47
2021/09/10 03:06:10;;;;;;;;;;;;;;;;;;2084047;28;19983;-47
2021/09/10 03:07:11;;;;;;;;;;;;;;;;;;2082614;28;19921;-47
2021/09/10 03:08:12;;;;;;;;;;;;;;;;;;2087093;28;19978;-48
2021/09/10 03:09:12;;;;;;;;;;;;;;;;;;2089652;28;19928;-48
2021/09/10 03:10:13;;;;;;;;;;;;;;;;;;2090713;28;20333;-47
2021/09/10 03:11:14;;;;;;;;;;;;;;;;;;2089453;28;19933;-46
2021/09/10 03:12:15;;;;;;;;;;;;;;;;;;2082882;28;19921;-46
2021/09/10 03:13:16;;;;;;;;;;;;;;;;;;2082427;28;19929;-47
2021/09/10 03:14:17;;;;;;;;;;;;;;;;;;2088066;28;20007;-47
2021/09/10 03:15:17;;;;;;;;;;;;;;;;;;2082463;28;19932;-48
2021/09/10 03:16:18;;;;;;;;;;;;;;;;;;2082612;28;20374;-47
2021/09/10 03:17:19;;;;;;;;;;;;;;;;;;2087814;28;19953;-48
2021/09/10 03:18:20;;;;;;;;;;;;;;;;;;2090613;28;19921;-46
2021/09/10 03:19:20;;;;;;;;;;;;;;;;;;2090715;28;20343;-47
2021/09/10 03:20:21;;;;;;;;;;;;;;;;;;2088182;28;19921;-47
2021/09/10 03:21:22;;;;;;;;;;;;;;;;;;2090807;28;19921;-47
2021/09/10 03:22:23;;;;;;;;;;;;;;;;;;2090240;28;19920;-47
2021/09/10 03:23:24;;;;;;;;;;;;;;;;;;2089716;28;20007;-46
2021/09/10 03:24:25;;;;;;;;;;;;;;;;;;2090642;28;19921;-47
2021/09/10 03:25:25;;;;;;;;;;;;;;;;;;2090170;28;19928;-47
2021/09/10 03:26:26;;;;;;;;;;;;;;;;;;2087237;28;20421;-47
2021/09/10 03:27:27;;;;;;;;;;;;;;;;;;2082558;28;19925;-47
2021/09/10 03:28:28;;;;;;;;;;;;;;;;;;2083606;28;19921;-47
2021/09/10 03:29:29;;;;;;;;;;;;;;;;;;2084789;28;20371;-47
2021/09/10 03:30:30;;;;;;;;;;;;;;;;;;2082351;28;19921;-47
2021/09/10 03:31:30;;;;;;;;;;;;;;;;;;2085871;28;19921;-47
2021/09/10 03:32:31;;;;;;;;;;;;;;;;;;2088724;28;19979;-47
2021/09/10 03:33:32;;;;;;;;;;;;;;;;;;2090599;28;19921;-47
2021/09/10 03:34:34;;;;;;;;;;;;;;;;;;2089037;28;19920;-46
2021/09/10 03:35:34;;;;;;;;;;;;;;;;;;2089701;28;19920;-47
2021/09/10 03:36:35;;;;;;;;;;;;;;;;;;2090656;28;19921;-45
2021/09/10 03:37:36;;;;;;;;;;;;;;;;;;2088667;28;20369;-46
2021/09/10 03:38:37;;;;;;;;;;;;;;;;;;2089383;28;19921;-46
2021/09/10 03:39:38;;;;;;;;;;;;;;;;;;2090540;28;19932;-48
2021/09/10 03:40:38;;;;;;;;;;;;;;;;;;2088185;28;19929;-46
2021/09/10 03:41:39;;;;;;;;;;;;;;;;;;2090501;28;19921;-47
2021/09/10 03:42:40;;;;;;;;;;;;;;;;;;2090554;28;19924;-46
2021/09/10 03:43:42;;;;;;;;;;;;;;;;;;2089172;28;20324;-47
2021/09/10 03:44:43;;;;;;;;;;;;;;;;;;2082377;28;20011;-47
2021/09/10 03:45:44;;;;;;;;;;;;;;;;;;2082334;28;20301;-47
2021/09/10 03:46:45;;;;;;;;;;;;;;;;;;2087142;28;20328;-47
2021/09/10 03:47:46;;;;;;;;;;;;;;;;;;2082472;28;19921;-49
2021/09/10 03:48:46;;;;;;;;;;;;;;;;;;2081944;28;20368;-47
2021/09/10 03:49:47;;;;;;;;;;;;;;;;;;2087981;28;19925;-47
2021/09/10 03:50:48;;;;;;;;;;;;;;;;;;2080876;28;19927;-47
2021/09/10 03:51:49;;;;;;;;;;;;;;;;;;2082546;28;19921;-47
2021/09/10 03:52:50;;;;;;;;;;;;;;;;;;2087598;28;19964;-46
2021/09/10 03:53:50;;;;;;;;;;;;;;;;;;2082158;28;20374;-47
2021/09/10 03:54:51;;;;;;;;;;;;;;;;;;2083186;28;19920;-46
2021/09/10 03:55:52;;;;;;;;;;;;;;;;;;2086980;28;19929;-47
2021/09/10 03:56:53;;;;;;;;;;;;;;;;;;2090647;28;20000;-47
2021/09/10 03:57:54;;;;;;;;;;;;;;;;;;2089936;28;19920;-47
2021/09/10 03:58:55;;;;;;;;;;;;;;;;;;2088015;28;19972;-47
2021/09/10 03:59:56;;;;;;;;;;;;;;;;;;2090751;28;20332;-58
2021/09/10 04:00:56;;;;;;;;;;;;;;;;;;2089531;28;19999;-58
2021/09/10 04:01:57;;;;;;;;;;;;;;;;;;2088977;28;20207;-58
2021/09/10 04:03:03;;;;;;;;;;;;;;;;;;2090345;28;20049;-58
2021/09/10 04:04:04;;;;;;;;;;;;;;;;;;2089362;28;19920;-58
2021/09/10 04:05:05;;;;;;;;;;;;;;;;;;2089578;28;19959;-58
2021/09/10 04:06:06;;;;;;;;;;;;;;;;;;2090349;28;19943;-58
2021/09/10 04:07:06;;;;;;;;;;;;;;;;;;2087617;28;19973;-58
2021/09/10 04:08:08;;;;;;;;;;;;;;;;;;2090369;28;20352;-58
2021/09/10 04:09:09;;;;;;;;;;;;;;;;;;2090378;28;20361;-58
2021/09/10 04:10:10;;;;;;;;;;;;;;;;;;2088031;28;19932;-58
2021/09/10 04:11:11;;;;;;;;;;;;;;;;;;2090293;28;19975;-58
2021/09/10 04:12:11;;;;;;;;;;;;;;;;;;2090366;28;19931;-58
2021/09/10 04:13:12;;;;;;;;;;;;;;;;;;2088031;28;19928;-58
2021/09/10 04:14:13;;;;;;;;;;;;;;;;;;2082129;28;20366;-58
2021/09/10 04:15:14;;;;;;;;;;;;;;;;;;2081992;28;20022;-58
2021/09/10 04:16:15;;;;;;;;;;;;;;;;;;2087751;28;20338;-58
2021/09/10 04:17:16;;;;;;;;;;;;;;;;;;2090259;28;19928;-58
2021/09/10 04:18:16;;;;;;;;;;;;;;;;;;2089736;28;19921;-58
2021/09/10 04:19:17;;;;;;;;;;;;;;;;;;2088476;28;19932;-58
2021/09/10 04:20:18;;;;;;;;;;;;;;;;;;2082035;28;19928;-58
2021/09/10 04:21:19;;;;;;;;;;;;;;;;;;2082898;28;19927;-58
2021/09/10 04:22:20;;;;;;;;;;;;;;;;;;2088502;28;20502;-58
2021/09/10 04:23:20;;;;;;;;;;;;;;;;;;2090197;28;19920;-58
2021/09/10 04:24:21;;;;;;;;;;;;;;;;;;2089638;28;19927;-58
2021/09/10 04:25:22;;;;;;;;;;;;;;;;;;2088408;28;19948;-58
2021/09/10 04:26:23;;;;;;;;;;;;;;;;;;2090267;28;19921;-58
2021/09/10 04:27:24;;;;;;;;;;;;;;;;;;2089385;28;19973;-58
2021/09/10 04:28:25;;;;;;;;;;;;;;;;;;2088866;28;19947;-58
2021/09/10 04:29:25;;;;;;;;;;;;;;;;;;2090312;28;19928;-59
2021/09/10 04:30:26;;;;;;;;;;;;;;;;;;2089188;28;20282;-58
2021/09/10 04:31:27;;;;;;;;;;;;;;;;;;2088760;28;19943;-58
2021/09/10 04:32:28;;;;;;;;;;;;;;;;;;2090222;28;19947;-58
2021/09/10 04:33:29;;;;;;;;;;;;;;;;;;2089302;28;20389;-58
2021/09/10 04:34:30;;;;;;;;;;;;;;;;;;2088729;28;19920;-58
2021/09/10 04:35:31;;;;;;;;;;;;;;;;;;2090099;28;19929;-58
2021/09/10 04:36:31;;;;;;;;;;;;;;;;;;2089218;28;19970;-58
2021/09/10 04:37:32;;;;;;;;;;;;;;;;;;2089910;28;19920;-58
2021/09/10 04:38:33;;;;;;;;;;;;;;;;;;2090014;28;19925;-58
2021/09/10 04:39:34;;;;;;;;;;;;;;;;;;2088800;28;20022;-58
2021/09/10 04:40:35;;;;;;;;;;;;;;;;;;2089347;28;19921;-58
2021/09/10 04:41:36;;;;;;;;;;;;;;;;;;2090314;28;19947;-58
2021/09/10 04:42:36;;;;;;;;;;;;;;;;;;2087924;28;19920;-59
2021/09/10 04:43:37;;;;;;;;;;;;;;;;;;2090016;28;20062;-59
2021/09/10 04:44:38;;;;;;;;;;;;;;;;;;2090128;28;19931;-58
2021/09/10 04:45:39;;;;;;;;;;;;;;;;;;2088951;28;20011;-58
2021/09/10 04:46:40;;;;;;;;;;;;;;;;;;2082118;28;19921;-59
2021/09/10 04:47:41;;;;;;;;;;;;;;;;;;2081904;28;20011;-58
2021/09/10 04:48:41;;;;;;;;;;;;;;;;;;2085627;28;19921;-59
2021/09/10 04:49:42;;;;;;;;;;;;;;;;;;2081942;28;19967;-59
2021/09/10 04:50:43;;;;;;;;;;;;;;;;;;2081422;28;20286;-59
2021/09/10 04:51:44;;;;;;;;;;;;;;;;;;2086545;28;20022;-58
2021/09/10 04:52:45;;;;;;;;;;;;;;;;;;2081851;28;19921;-59
2021/09/10 04:53:45;;;;;;;;;;;;;;;;;;2083484;28;19921;-59
2021/09/10 04:54:46;;;;;;;;;;;;;;;;;;2088285;28;20259;-59
2021/09/10 04:55:47;;;;;;;;;;;;;;;;;;2090055;28;20588;-58
2021/09/10 04:56:48;;;;;;;;;;;;;;;;;;2089356;28;19936;-58
2021/09/10 04:57:49;;;;;;;;;;;;;;;;;;2088435;28;19920;-59
2021/09/10 04:58:50;;;;;;;;;;;;;;;;;;2089966;28;19920;-59
2021/09/10 04:59:53;;;;;;;;;;;;;;;;;;2089170;28;19921;-58
2021/09/10 05:00:54;;;;;;;;;;;;;;;;;;2084747;28;20019;-58
2021/09/10 05:01:54;;;;;;;;;;;;;;;;;;2081740;28;19921;-59
2021/09/10 05:02:56;;;;;;;;;;;;;;;;;;2085282;28;19960;-59
2021/09/10 05:03:57;;;;;;;;;;;;;;;;;;2083860;28;19921;-58
2021/09/10 05:04:58;;;;;;;;;;;;;;;;;;2081916;28;19925;-59
2021/09/10 05:05:58;;;;;;;;;;;;;;;;;;2085421;28;20267;-60
2021/09/10 05:06:59;;;;;;;;;;;;;;;;;;2083389;28;20445;-58
2021/09/10 05:08:00;;;;;;;;;;;;;;;;;;2081692;28;19921;-59
2021/09/10 05:09:01;;;;;;;;;;;;;;;;;;2085386;28;19927;-59
2021/09/10 05:10:02;;;;;;;;;;;;;;;;;;2089561;28;19920;-59
2021/09/10 05:11:02;;;;;;;;;;;;;;;;;;2090053;28;20328;-58
2021/09/10 05:12:03;;;;;;;;;;;;;;;;;;2087894;28;19921;-59
2021/09/10 05:13:04;;;;;;;;;;;;;;;;;;2089848;28;19943;-59
2021/09/10 05:14:06;;;;;;;;;;;;;;;;;;2090033;28;19921;-59
2021/09/10 05:15:07;;;;;;;;;;;;;;;;;;2088703;28;20012;-59
2021/09/10 05:16:08;;;;;;;;;;;;;;;;;;2086311;28;20046;-58
2021/09/10 05:17:10;;;;;;;;;;;;;;;;;;2089876;28;19970;-59
2021/09/10 05:18:11;;;;;;;;;;;;;;;;;;2087732;28;20012;-59
2021/09/10 05:19:12;;;;;;;;;;;;;;;;;;2089946;28;19924;-58
2021/09/10 05:20:13;;;;;;;;;;;;;;;;;;2089413;28;20031;-60
2021/09/10 05:21:14;;;;;;;;;;;;;;;;;;2088019;28;19921;-59
2021/09/10 05:22:15;;;;;;;;;;;;;;;;;;2090008;28;19966;-59
2021/09/10 05:23:15;;;;;;;;;;;;;;;;;;2089584;28;20274;-59
2021/09/10 05:24:16;;;;;;;;;;;;;;;;;;2087891;28;19920;-60
2021/09/10 05:25:17;;;;;;;;;;;;;;;;;;2089948;28;20384;-60
2021/09/10 05:26:18;;;;;;;;;;;;;;;;;;2089374;28;19924;-59
2021/09/10 05:27:18;;;;;;;;;;;;;;;;;;2087117;28;20282;-59
2021/09/10 05:28:19;;;;;;;;;;;;;;;;;;2089908;28;20366;-60
2021/09/10 05:29:20;;;;;;;;;;;;;;;;;;2089521;28;19920;-59
2021/09/10 05:30:21;;;;;;;;;;;;;;;;;;2087983;28;20271;-59
2021/09/10 05:31:22;;;;;;;;;;;;;;;;;;2089733;28;19921;-60
2021/09/10 05:32:23;;;;;;;;;;;;;;;;;;2088950;28;19921;-60
2021/09/10 05:33:24;;;;;;;;;;;;;;;;;;2088274;28;19979;-60
2021/09/10 05:34:25;;;;;;;;;;;;;;;;;;2089831;28;19920;-60
2021/09/10 05:35:26;;;;;;;;;;;;;;;;;;2088743;28;19921;-60
2021/09/10 05:36:26;;;;;;;;;;;;;;;;;;2084708;28;19927;-60
2021/09/10 05:37:27;;;;;;;;;;;;;;;;;;2081548;28;19921;-60
2021/09/10 05:38:28;;;;;;;;;;;;;;;;;;2084532;28;20015;-59
2021/09/10 05:39:29;;;;;;;;;;;;;;;;;;2084053;28;20362;-59
2021/09/10 05:40:30;;;;;;;;;;;;;;;;;;2081531;28;19921;-60
2021/09/10 05:41:31;;;;;;;;;;;;;;;;;;2084959;28;20333;-60
2021/09/10 05:42:32;;;;;;;;;;;;;;;;;;2088355;28;19921;-59
2021/09/10 05:43:33;;;;;;;;;;;;;;;;;;2089861;28;19928;-61
2021/09/10 05:44:34;;;;;;;;;;;;;;;;;;2088623;28;19920;-60
2021/09/10 05:45:35;;;;;;;;;;;;;;;;;;2082875;28;19921;-59
2021/09/10 05:46:36;;;;;;;;;;;;;;;;;;2081633;28;19921;-60
2021/09/10 05:47:37;;;;;;;;;;;;;;;;;;2085308;28;20389;-60
2021/09/10 05:48:38;;;;;;;;;;;;;;;;;;2089551;28;19921;-60
2021/09/10 05:49:38;;;;;;;;;;;;;;;;;;2089875;28;19921;-60
2021/09/10 05:50:39;;;;;;;;;;;;;;;;;;2086458;28;19994;-59
2021/09/10 05:51:40;;;;;;;;;;;;;;;;;;2081701;28;20370;-59
2021/09/10 05:52:41;;;;;;;;;;;;;;;;;;2081609;28;19931;-60
2021/09/10 05:53:42;;;;;;;;;;;;;;;;;;2087111;28;19970;-59
2021/09/10 05:54:43;;;;;;;;;;;;;;;;;;2081511;28;20257;-59
2021/09/10 05:55:44;;;;;;;;;;;;;;;;;;2081426;28;19969;-60
2021/09/10 05:56:45;;;;;;;;;;;;;;;;;;2087939;28;19920;-59
2021/09/10 05:57:45;;;;;;;;;;;;;;;;;;2089750;28;20340;-59
2021/09/10 05:58:46;;;;;;;;;;;;;;;;;;2089791;28;20366;-59
2021/09/10 05:59:47;;;;;;;;;;;;;;;;;;2087698;28;19933;-60
2021/09/10 06:00:48;;;;;;;;;;;;;;;;;;2089753;28;19925;-59
2021/09/10 06:01:49;;;;;;;;;;;;;;;;;;2089182;28;19932;-60
2021/09/10 06:02:50;;;;;;;;;;;;;;;;;;2088861;28;20491;-59
2021/09/10 06:03:51;;;;;;;;;;;;;;;;;;2089817;28;19932;-59
2021/09/10 06:04:52;;;;;;;;;;;;;;;;;;2089207;28;19928;-59
2021/09/10 06:05:53;;;;;;;;;;;;;;;;;;2085194;28;20023;-58
2021/09/10 06:06:54;;;;;;;;;;;;;;;;;;2081649;28;20037;-59
2021/09/10 06:07:55;;;;;;;;;;;;;;;;;;2082758;28;20034;-59
2021/09/10 06:08:55;;;;;;;;;;;;;;;;;;2085453;28;19944;-59
2021/09/10 06:09:56;;;;;;;;;;;;;;;;;;2080883;28;20293;-59
2021/09/10 06:10:57;;;;;;;;;;;;;;;;;;2083156;28;19921;-59
2021/09/10 06:11:58;;;;;;;;;;;;;;;;;;2087776;28;19928;-58
2021/09/10 06:12:59;;;;;;;;;;;;;;;;;;2089611;28;19943;-58
2021/09/10 06:14:00;;;;;;;;;;;;;;;;;;2088739;28;20358;-59
2021/09/10 06:15:01;;;;;;;;;;;;;;;;;;2088061;28;19924;-59
2021/09/10 06:16:01;;;;;;;;;;;;;;;;;;2089432;28;20358;-58
2021/09/10 06:17:03;;;;;;;;;;;;;;;;;;2088774;28;19920;-59
2021/09/10 06:18:03;;;;;;;;;;;;;;;;;;2088199;28;20432;-59
2021/09/10 06:19:04;;;;;;;;;;;;;;;;;;2089697;28;20023;-60
2021/09/10 06:20:05;;;;;;;;;;;;;;;;;;2088667;28;20270;-59
2021/09/10 06:21:06;;;;;;;;;;;;;;;;;;2088149;28;20329;-59
2021/09/10 06:22:06;;;;;;;;;;;;;;;;;;2089614;28;19927;-58
2021/09/10 06:23:07;;;;;;;;;;;;;;;;;;2088530;28;19931;-58
2021/09/10 06:24:08;;;;;;;;;;;;;;;;;;2082990;28;19929;-59
2021/09/10 06:25:09;;;;;;;;;;;;;;;;;;2081267;28;20371;-58
2021/09/10 06:26:10;;;;;;;;;;;;;;;;;;2085862;28;20017;-58
2021/09/10 06:27:11;;;;;;;;;;;;;;;;;;2088360;28;20382;-59
2021/09/10 06:28:12;;;;;;;;;;;;;;;;;;2089649;28;19932;-59
2021/09/10 06:29:13;;;;;;;;;;;;;;;;;;2087258;28;19932;-59
2021/09/10 06:30:14;;;;;;;;;;;;;;;;;;2089419;28;19927;-59
2021/09/10 06:31:14;;;;;;;;;;;;;;;;;;2089439;28;20389;-59
2021/09/10 06:32:16;;;;;;;;;;;;;;;;;;2088314;28;19975;-59
2021/09/10 06:33:16;;;;;;;;;;;;;;;;;;2081333;28;20310;-59
2021/09/10 06:34:20;;;;;;;;;;;;;;;;;;2081285;28;20398;-59
2021/09/10 06:35:22;;;;;;;;;;;;;;;;;;2086803;28;20029;-59
2021/09/10 06:36:23;;;;;;;;;;;;;;;;;;2089485;28;19920;-59
2021/09/10 06:37:24;;;;;;;;;;;;;;;;;;2089220;28;19989;-60
2021/09/10 06:38:25;;;;;;;;;;;;;;;;;;2087432;28;20038;-59
2021/09/10 06:39:26;;;;;;;;;;;;;;;;;;2089520;28;20054;-58
2021/09/10 06:40:27;;;;;;;;;;;;;;;;;;2088976;28;19920;-59
2021/09/10 06:41:28;;;;;;;;;;;;;;;;;;2086004;28;20425;-58
2021/09/10 06:42:28;;;;;;;;;;;;;;;;;;2081277;28;19925;-59
2021/09/10 06:43:29;;;;;;;;;;;;;;;;;;2082504;28;19944;-59
2021/09/10 06:44:31;;;;;;;;;;;;;;;;;;2087592;28;19921;-59
2021/09/10 06:45:31;;;;;;;;;;;;;;;;;;2089536;28;19925;-58
2021/09/10 06:46:32;;;;;;;;;;;;;;;;;;2088820;28;20337;-59
2021/09/10 06:47:33;;;;;;;;;;;;;;;;;;2086769;28;19921;-59
2021/09/10 06:48:34;;;;;;;;;;;;;;;;;;2089605;28;19921;-58
2021/09/10 06:49:35;;;;;;;;;;;;;;;;;;2088617;28;19985;-59
2021/09/10 06:50:36;;;;;;;;;;;;;;;;;;2083073;28;19944;-59
2021/09/10 06:51:36;;;;;;;;;;;;;;;;;;2081182;28;19921;-59
2021/09/10 06:52:37;;;;;;;;;;;;;;;;;;2083796;28;19983;-59
2021/09/10 06:53:40;;;;;;;;;;;;;;;;;;2088031;28;19928;-59
2021/09/10 06:54:41;;;;;;;;;;;;;;;;;;2089506;28;19924;-59
2021/09/10 06:55:42;;;;;;;;;;;;;;;;;;2088277;28;19991;-59